sensor_id;sensor_type;location;lat;lon;timestamp;P1;durP1;ratioP1;P2;durP2;ratioP2
28934;SDS011;16044;52.726;-2.108;2022-12-18T00:01:24;19.98;;;8.93;;
28934;SDS011;16044;52.726;-2.108;2022-12-18T00:03:55;25.35;;;9.15;;
28934;SDS011;16044;52.726;-2.108;2022-12-18T00:06:22;19.98;;;9.15;;
28934;SDS011;16044;52.726;-2.108;2022-12-18T00:08:51;20.15;;;8.63;;
28934;SDS011;16044;52.726;-2.108;2022-12-18T00:11:19;18.27;;;9.02;;
28934;SDS011;16044;52.726;-2.108;2022-12-18T00:13:49;16.05;;;9.05;;
28934;SDS011;16044;52.726;-2.108;2022-12-18T00:16:20;22.75;;;9.50;;
28934;SDS011;16044;52.726;-2.108;2022-12-18T00:18:50;16.88;;;8.65;;
28934;SDS011;16044;52.726;-2.108;2022-12-18T00:21:19;24.92;;;8.82;;
28934;SDS011;16044;52.726;-2.108;2022-12-18T00:23:48;17.30;;;8.73;;
28934;SDS011;16044;52.726;-2.108;2022-12-18T00:26:20;19.45;;;8.63;;
28934;SDS011;16044;52.726;-2.108;2022-12-18T00:28:59;21.05;;;8.23;;
28934;SDS011;16044;52.726;-2.108;2022-12-18T00:31:37;20.15;;;8.88;;
28934;SDS011;16044;52.726;-2.108;2022-12-18T00:34:05;21.92;;;8.63;;
28934;SDS011;16044;52.726;-2.108;2022-12-18T00:36:32;16.52;;;8.77;;
28934;SDS011;16044;52.726;-2.108;2022-12-18T00:39:02;16.60;;;7.95;;
28934;SDS011;16044;52.726;-2.108;2022-12-18T00:41:32;20.17;;;8.70;;
28934;SDS011;16044;52.726;-2.108;2022-12-18T00:44:18;17.23;;;9.57;;
28934;SDS011;16044;52.726;-2.108;2022-12-18T00:46:46;21.35;;;9.57;;
28934;SDS011;16044;52.726;-2.108;2022-12-18T00:49:18;18.23;;;9.25;;
28934;SDS011;16044;52.726;-2.108;2022-12-18T00:51:46;19.38;;;9.80;;
28934;SDS011;16044;52.726;-2.108;2022-12-18T00:54:14;19.13;;;9.60;;
28934;SDS011;16044;52.726;-2.108;2022-12-18T00:56:42;19.33;;;9.50;;
28934;SDS011;16044;52.726;-2.108;2022-12-18T00:59:17;17.45;;;9.95;;
28934;SDS011;16044;52.726;-2.108;2022-12-18T01:01:44;16.83;;;9.43;;
28934;SDS011;16044;52.726;-2.108;2022-12-18T01:04:13;21.27;;;9.90;;
28934;SDS011;16044;52.726;-2.108;2022-12-18T01:06:41;21.95;;;9.80;;
28934;SDS011;16044;52.726;-2.108;2022-12-18T01:09:08;19.77;;;10.25;;
28934;SDS011;16044;52.726;-2.108;2022-12-18T01:11:34;23.13;;;12.15;;
28934;SDS011;16044;52.726;-2.108;2022-12-18T01:14:01;23.38;;;11.75;;
28934;SDS011;16044;52.726;-2.108;2022-12-18T01:16:28;23.63;;;11.98;;
28934;SDS011;16044;52.726;-2.108;2022-12-18T01:18:55;22.30;;;11.30;;
28934;SDS011;16044;52.726;-2.108;2022-12-18T01:21:23;27.52;;;13.48;;
28934;SDS011;16044;52.726;-2.108;2022-12-18T01:23:51;30.25;;;13.95;;
28934;SDS011;16044;52.726;-2.108;2022-12-18T01:26:21;26.05;;;13.00;;
28934;SDS011;16044;52.726;-2.108;2022-12-18T01:28:48;26.42;;;12.70;;
28934;SDS011;16044;52.726;-2.108;2022-12-18T01:31:19;24.90;;;13.38;;
28934;SDS011;16044;52.726;-2.108;2022-12-18T01:33:53;27.10;;;12.65;;
28934;SDS011;16044;52.726;-2.108;2022-12-18T01:36:25;25.23;;;13.77;;
28934;SDS011;16044;52.726;-2.108;2022-12-18T01:39:02;27.02;;;13.82;;
28934;SDS011;16044;52.726;-2.108;2022-12-18T01:41:36;28.15;;;14.25;;
28934;SDS011;16044;52.726;-2.108;2022-12-18T01:47:57;29.42;;;13.65;;
28934;SDS011;16044;52.726;-2.108;2022-12-18T01:53:21;34.85;;;14.73;;
28934;SDS011;16044;52.726;-2.108;2022-12-18T01:55:50;30.33;;;14.80;;
28934;SDS011;16044;52.726;-2.108;2022-12-18T01:58:21;27.15;;;14.13;;
28934;SDS011;16044;52.726;-2.108;2022-12-18T02:00:59;30.83;;;14.20;;
28934;SDS011;16044;52.726;-2.108;2022-12-18T02:03:27;29.08;;;14.38;;
28934;SDS011;16044;52.726;-2.108;2022-12-18T02:08:28;28.13;;;13.45;;
28934;SDS011;16044;52.726;-2.108;2022-12-18T02:11:21;28.58;;;13.88;;
28934;SDS011;16044;52.726;-2.108;2022-12-18T02:14:18;22.13;;;12.77;;
28934;SDS011;16044;52.726;-2.108;2022-12-18T02:23:05;28.85;;;13.35;;
28934;SDS011;16044;52.726;-2.108;2022-12-18T02:28:36;32.78;;;14.55;;
28934;SDS011;16044;52.726;-2.108;2022-12-18T02:31:11;33.92;;;15.18;;
28934;SDS011;16044;52.726;-2.108;2022-12-18T02:33:44;30.23;;;15.20;;
28934;SDS011;16044;52.726;-2.108;2022-12-18T02:36:12;31.38;;;16.15;;
28934;SDS011;16044;52.726;-2.108;2022-12-18T02:38:42;34.95;;;16.45;;
28934;SDS011;16044;52.726;-2.108;2022-12-18T02:41:11;28.15;;;15.43;;
28934;SDS011;16044;52.726;-2.108;2022-12-18T02:43:45;36.83;;;17.08;;
28934;SDS011;16044;52.726;-2.108;2022-12-18T02:46:29;25.30;;;13.05;;
28934;SDS011;16044;52.726;-2.108;2022-12-18T02:49:06;40.03;;;17.67;;
28934;SDS011;16044;52.726;-2.108;2022-12-18T02:51:47;33.75;;;17.45;;
28934;SDS011;16044;52.726;-2.108;2022-12-18T02:54:45;35.03;;;16.48;;
28934;SDS011;16044;52.726;-2.108;2022-12-18T03:06:02;39.50;;;18.98;;
28934;SDS011;16044;52.726;-2.108;2022-12-18T03:08:59;40.10;;;18.98;;
28934;SDS011;16044;52.726;-2.108;2022-12-18T03:11:33;37.42;;;19.88;;
28934;SDS011;16044;52.726;-2.108;2022-12-18T03:14:27;43.25;;;19.83;;
28934;SDS011;16044;52.726;-2.108;2022-12-18T03:16:59;43.67;;;19.52;;
28934;SDS011;16044;52.726;-2.108;2022-12-18T03:19:31;42.83;;;20.00;;
28934;SDS011;16044;52.726;-2.108;2022-12-18T03:22:01;39.05;;;20.00;;
28934;SDS011;16044;52.726;-2.108;2022-12-18T03:24:30;36.60;;;19.25;;
28934;SDS011;16044;52.726;-2.108;2022-12-18T03:27:02;42.22;;;20.60;;
28934;SDS011;16044;52.726;-2.108;2022-12-18T03:29:37;39.00;;;20.83;;
28934;SDS011;16044;52.726;-2.108;2022-12-18T03:32:11;39.30;;;19.23;;
28934;SDS011;16044;52.726;-2.108;2022-12-18T03:34:47;41.90;;;20.40;;
28934;SDS011;16044;52.726;-2.108;2022-12-18T03:37:17;46.55;;;20.23;;
28934;SDS011;16044;52.726;-2.108;2022-12-18T03:39:44;41.63;;;19.45;;
28934;SDS011;16044;52.726;-2.108;2022-12-18T03:42:14;43.25;;;20.70;;
28934;SDS011;16044;52.726;-2.108;2022-12-18T03:44:50;42.17;;;20.75;;
28934;SDS011;16044;52.726;-2.108;2022-12-18T03:47:42;40.13;;;20.35;;
28934;SDS011;16044;52.726;-2.108;2022-12-18T03:50:26;43.10;;;20.27;;
28934;SDS011;16044;52.726;-2.108;2022-12-18T03:55:49;44.28;;;21.17;;
28934;SDS011;16044;52.726;-2.108;2022-12-18T03:58:19;52.25;;;22.15;;
28934;SDS011;16044;52.726;-2.108;2022-12-18T04:00:49;53.47;;;22.90;;
28934;SDS011;16044;52.726;-2.108;2022-12-18T04:03:21;48.40;;;23.48;;
28934;SDS011;16044;52.726;-2.108;2022-12-18T04:05:52;57.47;;;24.92;;
28934;SDS011;16044;52.726;-2.108;2022-12-18T04:08:21;51.63;;;24.58;;
28934;SDS011;16044;52.726;-2.108;2022-12-18T04:10:50;60.58;;;26.42;;
28934;SDS011;16044;52.726;-2.108;2022-12-18T04:13:50;61.10;;;26.77;;
28934;SDS011;16044;52.726;-2.108;2022-12-18T04:16:10;63.45;;;25.90;;
28934;SDS011;16044;52.726;-2.108;2022-12-18T04:18:37;57.67;;;26.13;;
28934;SDS011;16044;52.726;-2.108;2022-12-18T04:21:04;59.45;;;26.80;;
28934;SDS011;16044;52.726;-2.108;2022-12-18T04:23:31;63.33;;;26.80;;
28934;SDS011;16044;52.726;-2.108;2022-12-18T04:25:58;64.43;;;28.80;;
28934;SDS011;16044;52.726;-2.108;2022-12-18T04:28:24;69.43;;;30.85;;
28934;SDS011;16044;52.726;-2.108;2022-12-18T04:30:51;65.82;;;29.42;;
28934;SDS011;16044;52.726;-2.108;2022-12-18T04:33:18;73.15;;;30.83;;
28934;SDS011;16044;52.726;-2.108;2022-12-18T04:35:46;76.65;;;31.80;;
28934;SDS011;16044;52.726;-2.108;2022-12-18T04:38:13;79.97;;;33.00;;
28934;SDS011;16044;52.726;-2.108;2022-12-18T04:40:40;79.53;;;33.03;;
28934;SDS011;16044;52.726;-2.108;2022-12-18T04:43:08;78.90;;;33.88;;
28934;SDS011;16044;52.726;-2.108;2022-12-18T04:45:35;79.05;;;34.17;;
28934;SDS011;16044;52.726;-2.108;2022-12-18T04:48:02;82.00;;;34.53;;
28934;SDS011;16044;52.726;-2.108;2022-12-18T04:50:30;81.13;;;34.65;;
28934;SDS011;16044;52.726;-2.108;2022-12-18T04:52:58;81.70;;;36.25;;
28934;SDS011;16044;52.726;-2.108;2022-12-18T04:55:25;89.90;;;36.42;;
28934;SDS011;16044;52.726;-2.108;2022-12-18T04:57:53;85.53;;;35.58;;
28934;SDS011;16044;52.726;-2.108;2022-12-18T05:00:20;83.60;;;35.40;;
28934;SDS011;16044;52.726;-2.108;2022-12-18T05:02:48;90.63;;;37.03;;
28934;SDS011;16044;52.726;-2.108;2022-12-18T05:05:15;80.82;;;33.90;;
28934;SDS011;16044;52.726;-2.108;2022-12-18T05:07:42;89.90;;;36.28;;
28934;SDS011;16044;52.726;-2.108;2022-12-18T05:10:09;77.95;;;34.40;;
28934;SDS011;16044;52.726;-2.108;2022-12-18T05:12:36;85.82;;;35.00;;
28934;SDS011;16044;52.726;-2.108;2022-12-18T05:15:27;87.05;;;34.17;;
28934;SDS011;16044;52.726;-2.108;2022-12-18T05:17:58;83.35;;;34.65;;
28934;SDS011;16044;52.726;-2.108;2022-12-18T05:20:26;85.53;;;34.90;;
28934;SDS011;16044;52.726;-2.108;2022-12-18T05:22:54;88.47;;;36.10;;
28934;SDS011;16044;52.726;-2.108;2022-12-18T05:25:21;81.75;;;35.13;;
28934;SDS011;16044;52.726;-2.108;2022-12-18T05:27:49;83.57;;;33.17;;
28934;SDS011;16044;52.726;-2.108;2022-12-18T05:30:16;84.22;;;34.90;;
28934;SDS011;16044;52.726;-2.108;2022-12-18T05:32:43;76.72;;;34.13;;
28934;SDS011;16044;52.726;-2.108;2022-12-18T05:35:10;81.90;;;34.65;;
28934;SDS011;16044;52.726;-2.108;2022-12-18T05:37:37;84.38;;;35.78;;
28934;SDS011;16044;52.726;-2.108;2022-12-18T05:40:08;90.40;;;36.30;;
28934;SDS011;16044;52.726;-2.108;2022-12-18T05:42:36;82.38;;;34.97;;
28934;SDS011;16044;52.726;-2.108;2022-12-18T05:45:03;82.13;;;35.78;;
28934;SDS011;16044;52.726;-2.108;2022-12-18T05:47:32;84.65;;;37.13;;
28934;SDS011;16044;52.726;-2.108;2022-12-18T05:49:59;84.22;;;35.72;;
28934;SDS011;16044;52.726;-2.108;2022-12-18T05:52:26;89.00;;;36.85;;
28934;SDS011;16044;52.726;-2.108;2022-12-18T05:54:52;87.38;;;36.83;;
28934;SDS011;16044;52.726;-2.108;2022-12-18T05:57:19;97.50;;;37.67;;
28934;SDS011;16044;52.726;-2.108;2022-12-18T05:59:46;86.97;;;36.22;;
28934;SDS011;16044;52.726;-2.108;2022-12-18T06:02:13;89.20;;;36.90;;
28934;SDS011;16044;52.726;-2.108;2022-12-18T06:04:40;92.90;;;36.90;;
28934;SDS011;16044;52.726;-2.108;2022-12-18T06:07:07;90.88;;;37.38;;
28934;SDS011;16044;52.726;-2.108;2022-12-18T06:09:34;86.57;;;37.15;;
28934;SDS011;16044;52.726;-2.108;2022-12-18T06:12:01;83.63;;;36.33;;
28934;SDS011;16044;52.726;-2.108;2022-12-18T06:14:28;92.20;;;37.47;;
28934;SDS011;16044;52.726;-2.108;2022-12-18T06:16:58;93.13;;;38.00;;
28934;SDS011;16044;52.726;-2.108;2022-12-18T06:19:25;86.80;;;37.47;;
28934;SDS011;16044;52.726;-2.108;2022-12-18T06:21:51;91.78;;;39.60;;
28934;SDS011;16044;52.726;-2.108;2022-12-18T06:24:19;88.03;;;37.85;;
28934;SDS011;16044;52.726;-2.108;2022-12-18T06:26:46;91.35;;;38.50;;
28934;SDS011;16044;52.726;-2.108;2022-12-18T06:29:13;85.63;;;36.75;;
28934;SDS011;16044;52.726;-2.108;2022-12-18T06:31:39;90.97;;;38.65;;
28934;SDS011;16044;52.726;-2.108;2022-12-18T06:34:06;88.65;;;37.42;;
28934;SDS011;16044;52.726;-2.108;2022-12-18T06:36:33;96.18;;;39.20;;
28934;SDS011;16044;52.726;-2.108;2022-12-18T06:39:01;89.25;;;38.90;;
28934;SDS011;16044;52.726;-2.108;2022-12-18T06:41:27;88.13;;;37.80;;
28934;SDS011;16044;52.726;-2.108;2022-12-18T06:43:54;92.68;;;39.00;;
28934;SDS011;16044;52.726;-2.108;2022-12-18T06:46:25;88.55;;;36.97;;
28934;SDS011;16044;52.726;-2.108;2022-12-18T06:48:52;91.55;;;38.78;;
28934;SDS011;16044;52.726;-2.108;2022-12-18T06:51:19;90.05;;;38.65;;
28934;SDS011;16044;52.726;-2.108;2022-12-18T06:53:48;95.80;;;37.75;;
28934;SDS011;16044;52.726;-2.108;2022-12-18T06:56:16;88.05;;;37.65;;
28934;SDS011;16044;52.726;-2.108;2022-12-18T06:58:43;93.25;;;37.42;;
28934;SDS011;16044;52.726;-2.108;2022-12-18T07:01:10;94.57;;;38.97;;
28934;SDS011;16044;52.726;-2.108;2022-12-18T07:03:39;89.10;;;36.80;;
28934;SDS011;16044;52.726;-2.108;2022-12-18T07:06:15;93.88;;;39.65;;
28934;SDS011;16044;52.726;-2.108;2022-12-18T07:08:45;87.95;;;37.00;;
28934;SDS011;16044;52.726;-2.108;2022-12-18T07:11:14;89.47;;;38.63;;
28934;SDS011;16044;52.726;-2.108;2022-12-18T07:13:42;93.45;;;39.55;;
28934;SDS011;16044;52.726;-2.108;2022-12-18T07:16:14;94.68;;;40.13;;
28934;SDS011;16044;52.726;-2.108;2022-12-18T07:18:50;91.80;;;37.85;;
28934;SDS011;16044;52.726;-2.108;2022-12-18T07:21:18;90.78;;;38.92;;
28934;SDS011;16044;52.726;-2.108;2022-12-18T07:23:46;94.97;;;40.50;;
28934;SDS011;16044;52.726;-2.108;2022-12-18T07:26:15;92.82;;;39.92;;
28934;SDS011;16044;52.726;-2.108;2022-12-18T07:28:45;94.75;;;38.97;;
28934;SDS011;16044;52.726;-2.108;2022-12-18T07:31:19;94.35;;;38.92;;
28934;SDS011;16044;52.726;-2.108;2022-12-18T07:33:48;96.93;;;39.85;;
28934;SDS011;16044;52.726;-2.108;2022-12-18T07:36:16;97.70;;;38.33;;
28934;SDS011;16044;52.726;-2.108;2022-12-18T07:38:46;95.63;;;39.53;;
28934;SDS011;16044;52.726;-2.108;2022-12-18T07:41:14;90.00;;;38.28;;
28934;SDS011;16044;52.726;-2.108;2022-12-18T07:43:42;96.10;;;39.28;;
28934;SDS011;16044;52.726;-2.108;2022-12-18T07:46:10;91.55;;;38.78;;
28934;SDS011;16044;52.726;-2.108;2022-12-18T07:48:42;94.18;;;37.70;;
28934;SDS011;16044;52.726;-2.108;2022-12-18T07:51:10;90.35;;;38.38;;
28934;SDS011;16044;52.726;-2.108;2022-12-18T07:53:38;89.25;;;37.83;;
28934;SDS011;16044;52.726;-2.108;2022-12-18T07:56:07;94.85;;;39.13;;
28934;SDS011;16044;52.726;-2.108;2022-12-18T07:58:53;93.35;;;37.50;;
28934;SDS011;16044;52.726;-2.108;2022-12-18T08:01:20;85.97;;;36.80;;
28934;SDS011;16044;52.726;-2.108;2022-12-18T08:03:47;82.20;;;35.75;;
28934;SDS011;16044;52.726;-2.108;2022-12-18T08:06:17;86.47;;;37.05;;
28934;SDS011;16044;52.726;-2.108;2022-12-18T08:08:53;88.50;;;36.97;;
28934;SDS011;16044;52.726;-2.108;2022-12-18T08:11:22;85.47;;;36.08;;
28934;SDS011;16044;52.726;-2.108;2022-12-18T08:13:51;83.63;;;35.55;;
28934;SDS011;16044;52.726;-2.108;2022-12-18T08:16:19;90.85;;;36.22;;
28934;SDS011;16044;52.726;-2.108;2022-12-18T08:18:47;90.13;;;38.05;;
28934;SDS011;16044;52.726;-2.108;2022-12-18T08:21:17;83.95;;;35.40;;
28934;SDS011;16044;52.726;-2.108;2022-12-18T08:23:49;90.07;;;36.60;;
28934;SDS011;16044;52.726;-2.108;2022-12-18T08:26:18;94.70;;;36.50;;
28934;SDS011;16044;52.726;-2.108;2022-12-18T08:28:47;82.20;;;35.10;;
28934;SDS011;16044;52.726;-2.108;2022-12-18T08:31:16;81.20;;;33.90;;
28934;SDS011;16044;52.726;-2.108;2022-12-18T08:33:44;84.53;;;35.38;;
28934;SDS011;16044;52.726;-2.108;2022-12-18T08:36:12;86.25;;;35.40;;
28934;SDS011;16044;52.726;-2.108;2022-12-18T08:38:38;79.03;;;33.63;;
28934;SDS011;16044;52.726;-2.108;2022-12-18T08:41:12;78.70;;;34.15;;
28934;SDS011;16044;52.726;-2.108;2022-12-18T08:43:41;78.68;;;32.97;;
28934;SDS011;16044;52.726;-2.108;2022-12-18T08:46:27;78.05;;;32.80;;
28934;SDS011;16044;52.726;-2.108;2022-12-18T08:49:03;82.25;;;33.40;;
28934;SDS011;16044;52.726;-2.108;2022-12-18T08:51:32;76.85;;;32.83;;
28934;SDS011;16044;52.726;-2.108;2022-12-18T08:53:59;73.03;;;31.13;;
28934;SDS011;16044;52.726;-2.108;2022-12-18T08:56:27;81.63;;;34.35;;
28934;SDS011;16044;52.726;-2.108;2022-12-18T08:58:56;75.07;;;31.33;;
28934;SDS011;16044;52.726;-2.108;2022-12-18T09:01:23;71.47;;;30.45;;
28934;SDS011;16044;52.726;-2.108;2022-12-18T09:03:51;72.15;;;32.53;;
28934;SDS011;16044;52.726;-2.108;2022-12-18T09:06:19;66.78;;;29.48;;
28934;SDS011;16044;52.726;-2.108;2022-12-18T09:08:47;72.00;;;29.63;;
28934;SDS011;16044;52.726;-2.108;2022-12-18T09:11:22;64.65;;;28.42;;
28934;SDS011;16044;52.726;-2.108;2022-12-18T09:13:52;67.13;;;29.35;;
28934;SDS011;16044;52.726;-2.108;2022-12-18T09:16:21;66.82;;;27.45;;
28934;SDS011;16044;52.726;-2.108;2022-12-18T09:18:56;67.72;;;28.42;;
28934;SDS011;16044;52.726;-2.108;2022-12-18T09:21:31;61.53;;;26.50;;
28934;SDS011;16044;52.726;-2.108;2022-12-18T09:24:02;62.00;;;25.65;;
28934;SDS011;16044;52.726;-2.108;2022-12-18T09:26:32;69.70;;;28.40;;
28934;SDS011;16044;52.726;-2.108;2022-12-18T09:28:59;62.75;;;26.35;;
28934;SDS011;16044;52.726;-2.108;2022-12-18T09:31:26;61.53;;;25.75;;
28934;SDS011;16044;52.726;-2.108;2022-12-18T09:33:54;61.35;;;27.10;;
28934;SDS011;16044;52.726;-2.108;2022-12-18T09:36:22;65.30;;;28.67;;
28934;SDS011;16044;52.726;-2.108;2022-12-18T09:38:49;63.05;;;27.80;;
28934;SDS011;16044;52.726;-2.108;2022-12-18T09:49:55;55.88;;;26.38;;
28934;SDS011;16044;52.726;-2.108;2022-12-18T09:55:22;58.60;;;26.23;;
28934;SDS011;16044;52.726;-2.108;2022-12-18T09:58:49;51.33;;;23.98;;
28934;SDS011;16044;52.726;-2.108;2022-12-18T10:01:00;53.70;;;23.88;;
28934;SDS011;16044;52.726;-2.108;2022-12-18T10:03:27;51.40;;;24.23;;
28934;SDS011;16044;52.726;-2.108;2022-12-18T10:20:37;49.22;;;23.58;;
28934;SDS011;16044;52.726;-2.108;2022-12-18T10:28:33;46.83;;;22.80;;
28934;SDS011;16044;52.726;-2.108;2022-12-18T10:31:12;50.25;;;22.55;;
28934;SDS011;16044;52.726;-2.108;2022-12-18T10:33:45;50.72;;;22.45;;
28934;SDS011;16044;52.726;-2.108;2022-12-18T10:36:12;52.08;;;23.40;;
28934;SDS011;16044;52.726;-2.108;2022-12-18T10:38:40;49.08;;;22.23;;
28934;SDS011;16044;52.726;-2.108;2022-12-18T10:43:47;48.22;;;22.67;;
28934;SDS011;16044;52.726;-2.108;2022-12-18T10:46:15;45.17;;;21.05;;
28934;SDS011;16044;52.726;-2.108;2022-12-18T10:51:46;45.72;;;21.80;;
28934;SDS011;16044;52.726;-2.108;2022-12-18T10:54:12;48.95;;;21.48;;
28934;SDS011;16044;52.726;-2.108;2022-12-18T10:56:44;46.15;;;21.25;;
28934;SDS011;16044;52.726;-2.108;2022-12-18T10:59:13;48.50;;;22.10;;
28934;SDS011;16044;52.726;-2.108;2022-12-18T11:04:25;38.88;;;20.73;;
28934;SDS011;16044;52.726;-2.108;2022-12-18T11:07:01;44.38;;;20.92;;
28934;SDS011;16044;52.726;-2.108;2022-12-18T11:09:34;43.33;;;20.85;;
28934;SDS011;16044;52.726;-2.108;2022-12-18T11:12:04;40.13;;;20.45;;
28934;SDS011;16044;52.726;-2.108;2022-12-18T11:14:47;42.55;;;20.00;;
28934;SDS011;16044;52.726;-2.108;2022-12-18T11:17:18;45.03;;;20.83;;
28934;SDS011;16044;52.726;-2.108;2022-12-18T11:19:52;43.35;;;20.73;;
28934;SDS011;16044;52.726;-2.108;2022-12-18T11:22:25;41.30;;;20.60;;
28934;SDS011;16044;52.726;-2.108;2022-12-18T11:25:16;42.13;;;20.88;;
28934;SDS011;16044;52.726;-2.108;2022-12-18T11:28:00;42.05;;;20.83;;
28934;SDS011;16044;52.726;-2.108;2022-12-18T11:30:34;45.17;;;20.50;;
28934;SDS011;16044;52.726;-2.108;2022-12-18T11:38:23;44.22;;;20.92;;
28934;SDS011;16044;52.726;-2.108;2022-12-18T11:44:27;43.05;;;21.20;;
28934;SDS011;16044;52.726;-2.108;2022-12-18T11:47:03;40.72;;;20.67;;
28934;SDS011;16044;52.726;-2.108;2022-12-18T11:49:52;43.05;;;19.67;;
28934;SDS011;16044;52.726;-2.108;2022-12-18T11:52:45;40.45;;;20.38;;
28934;SDS011;16044;52.726;-2.108;2022-12-18T11:55:12;43.10;;;20.92;;
28934;SDS011;16044;52.726;-2.108;2022-12-18T11:57:48;42.03;;;20.15;;
28934;SDS011;16044;52.726;-2.108;2022-12-18T12:00:42;47.35;;;20.50;;
28934;SDS011;16044;52.726;-2.108;2022-12-18T12:06:21;45.15;;;21.95;;
28934;SDS011;16044;52.726;-2.108;2022-12-18T12:17:54;46.28;;;22.30;;
28934;SDS011;16044;52.726;-2.108;2022-12-18T12:29:50;51.92;;;22.75;;
28934;SDS011;16044;52.726;-2.108;2022-12-18T12:35:49;50.45;;;24.23;;
28934;SDS011;16044;52.726;-2.108;2022-12-18T12:41:12;55.47;;;24.33;;
28934;SDS011;16044;52.726;-2.108;2022-12-18T12:44:03;48.00;;;23.55;;
28934;SDS011;16044;52.726;-2.108;2022-12-18T12:46:35;52.22;;;22.95;;
28934;SDS011;16044;52.726;-2.108;2022-12-18T12:49:11;54.83;;;25.02;;
28934;SDS011;16044;52.726;-2.108;2022-12-18T12:51:44;50.97;;;24.58;;
28934;SDS011;16044;52.726;-2.108;2022-12-18T12:54:25;62.58;;;25.13;;
28934;SDS011;16044;52.726;-2.108;2022-12-18T13:02:33;69.93;;;27.52;;
28934;SDS011;16044;52.726;-2.108;2022-12-18T13:08:24;60.95;;;26.75;;
28934;SDS011;16044;52.726;-2.108;2022-12-18T13:11:00;61.58;;;27.10;;
28934;SDS011;16044;52.726;-2.108;2022-12-18T13:13:50;60.67;;;27.05;;
28934;SDS011;16044;52.726;-2.108;2022-12-18T13:16:23;55.55;;;26.48;;
28934;SDS011;16044;52.726;-2.108;2022-12-18T13:18:54;69.13;;;27.67;;
28934;SDS011;16044;52.726;-2.108;2022-12-18T13:21:28;61.20;;;27.30;;
28934;SDS011;16044;52.726;-2.108;2022-12-18T13:24:14;46.07;;;22.07;;
28934;SDS011;16044;52.726;-2.108;2022-12-18T13:26:49;62.67;;;28.05;;
28934;SDS011;16044;52.726;-2.108;2022-12-18T13:32:19;66.88;;;28.98;;
28934;SDS011;16044;52.726;-2.108;2022-12-18T13:37:52;68.72;;;30.67;;
28934;SDS011;16044;52.726;-2.108;2022-12-18T13:41:04;68.13;;;30.67;;
28934;SDS011;16044;52.726;-2.108;2022-12-18T13:45:49;74.63;;;30.98;;
28934;SDS011;16044;52.726;-2.108;2022-12-18T13:48:40;65.13;;;29.70;;
28934;SDS011;16044;52.726;-2.108;2022-12-18T13:51:24;69.23;;;31.03;;
28934;SDS011;16044;52.726;-2.108;2022-12-18T13:56:27;69.22;;;32.38;;
28934;SDS011;16044;52.726;-2.108;2022-12-18T14:01:48;70.18;;;33.53;;
28934;SDS011;16044;52.726;-2.108;2022-12-18T14:04:30;82.72;;;35.58;;
28934;SDS011;16044;52.726;-2.108;2022-12-18T14:07:05;70.65;;;32.53;;
28934;SDS011;16044;52.726;-2.108;2022-12-18T14:09:42;67.63;;;32.92;;
28934;SDS011;16044;52.726;-2.108;2022-12-18T14:12:16;68.05;;;32.78;;
28934;SDS011;16044;52.726;-2.108;2022-12-18T14:20:53;71.90;;;34.00;;
28934;SDS011;16044;52.726;-2.108;2022-12-18T14:23:33;76.55;;;34.70;;
28934;SDS011;16044;52.726;-2.108;2022-12-18T14:28:57;76.60;;;34.03;;
28934;SDS011;16044;52.726;-2.108;2022-12-18T14:31:30;79.47;;;35.78;;
28934;SDS011;16044;52.726;-2.108;2022-12-18T14:33:58;75.82;;;36.38;;
28934;SDS011;16044;52.726;-2.108;2022-12-18T14:36:28;75.30;;;33.88;;
28934;SDS011;16044;52.726;-2.108;2022-12-18T14:38:56;67.30;;;34.00;;
28934;SDS011;16044;52.726;-2.108;2022-12-18T14:41:25;67.30;;;32.72;;
28934;SDS011;16044;52.726;-2.108;2022-12-18T14:43:53;75.75;;;34.47;;
28934;SDS011;16044;52.726;-2.108;2022-12-18T14:49:15;74.15;;;33.38;;
28934;SDS011;16044;52.726;-2.108;2022-12-18T14:51:57;70.18;;;34.30;;
28934;SDS011;16044;52.726;-2.108;2022-12-18T14:54:28;73.90;;;33.30;;
28934;SDS011;16044;52.726;-2.108;2022-12-18T14:57:01;74.88;;;35.13;;
28934;SDS011;16044;52.726;-2.108;2022-12-18T14:59:30;69.45;;;33.33;;
28934;SDS011;16044;52.726;-2.108;2022-12-18T15:02:04;69.43;;;32.88;;
28934;SDS011;16044;52.726;-2.108;2022-12-18T15:05:03;59.03;;;31.02;;
28934;SDS011;16044;52.726;-2.108;2022-12-18T15:07:52;65.95;;;30.05;;
28934;SDS011;16044;52.726;-2.108;2022-12-18T15:18:24;57.05;;;28.05;;
28934;SDS011;16044;52.726;-2.108;2022-12-18T15:21:00;49.75;;;25.45;;
28934;SDS011;16044;52.726;-2.108;2022-12-18T15:23:38;56.28;;;25.92;;
28934;SDS011;16044;52.726;-2.108;2022-12-18T15:26:17;56.13;;;25.25;;
28934;SDS011;16044;52.726;-2.108;2022-12-18T15:28:50;54.97;;;24.60;;
28934;SDS011;16044;52.726;-2.108;2022-12-18T15:31:29;50.15;;;22.23;;
28934;SDS011;16044;52.726;-2.108;2022-12-18T15:36:33;54.60;;;23.58;;
28934;SDS011;16044;52.726;-2.108;2022-12-18T15:39:03;54.67;;;22.95;;
28934;SDS011;16044;52.726;-2.108;2022-12-18T15:41:32;41.47;;;20.75;;
28934;SDS011;16044;52.726;-2.108;2022-12-18T15:44:02;42.20;;;20.75;;
28934;SDS011;16044;52.726;-2.108;2022-12-18T15:46:29;44.67;;;21.63;;
28934;SDS011;16044;52.726;-2.108;2022-12-18T15:48:57;48.25;;;21.05;;
28934;SDS011;16044;52.726;-2.108;2022-12-18T15:54:04;39.47;;;21.13;;
28934;SDS011;16044;52.726;-2.108;2022-12-18T15:56:37;36.83;;;20.83;;
28934;SDS011;16044;52.726;-2.108;2022-12-18T15:59:23;43.17;;;20.70;;
28934;SDS011;16044;52.726;-2.108;2022-12-18T16:01:51;48.67;;;21.15;;
28934;SDS011;16044;52.726;-2.108;2022-12-18T16:04:21;37.45;;;19.80;;
28934;SDS011;16044;52.726;-2.108;2022-12-18T16:06:49;40.75;;;19.42;;
28934;SDS011;16044;52.726;-2.108;2022-12-18T16:09:38;41.38;;;18.63;;
28934;SDS011;16044;52.726;-2.108;2022-12-18T16:12:06;36.47;;;19.55;;
28934;SDS011;16044;52.726;-2.108;2022-12-18T16:14:44;34.28;;;18.17;;
28934;SDS011;16044;52.726;-2.108;2022-12-18T16:17:12;31.08;;;17.63;;
28934;SDS011;16044;52.726;-2.108;2022-12-18T16:19:40;38.42;;;18.70;;
28934;SDS011;16044;52.726;-2.108;2022-12-18T16:22:10;37.65;;;17.27;;
28934;SDS011;16044;52.726;-2.108;2022-12-18T16:24:56;39.60;;;17.30;;
28934;SDS011;16044;52.726;-2.108;2022-12-18T16:27:23;40.47;;;18.98;;
28934;SDS011;16044;52.726;-2.108;2022-12-18T16:29:51;35.50;;;17.30;;
28934;SDS011;16044;52.726;-2.108;2022-12-18T16:32:19;32.58;;;16.92;;
28934;SDS011;16044;52.726;-2.108;2022-12-18T16:34:48;41.42;;;18.50;;
28934;SDS011;16044;52.726;-2.108;2022-12-18T16:37:15;33.75;;;17.33;;
28934;SDS011;16044;52.726;-2.108;2022-12-18T16:39:42;35.83;;;18.92;;
28934;SDS011;16044;52.726;-2.108;2022-12-18T16:42:14;39.00;;;19.52;;
28934;SDS011;16044;52.726;-2.108;2022-12-18T16:44:46;28.25;;;16.63;;
28934;SDS011;16044;52.726;-2.108;2022-12-18T16:47:14;33.53;;;16.20;;
28934;SDS011;16044;52.726;-2.108;2022-12-18T16:49:42;30.90;;;15.73;;
28934;SDS011;16044;52.726;-2.108;2022-12-18T16:52:11;26.73;;;15.65;;
28934;SDS011;16044;52.726;-2.108;2022-12-18T16:54:38;27.48;;;15.52;;
28934;SDS011;16044;52.726;-2.108;2022-12-18T16:57:05;29.02;;;16.00;;
28934;SDS011;16044;52.726;-2.108;2022-12-18T16:59:32;28.42;;;15.05;;
28934;SDS011;16044;52.726;-2.108;2022-12-18T17:01:59;28.65;;;15.40;;
28934;SDS011;16044;52.726;-2.108;2022-12-18T17:04:26;28.75;;;15.13;;
28934;SDS011;16044;52.726;-2.108;2022-12-18T17:06:53;28.60;;;15.75;;
28934;SDS011;16044;52.726;-2.108;2022-12-18T17:09:20;25.05;;;14.70;;
28934;SDS011;16044;52.726;-2.108;2022-12-18T17:11:51;26.08;;;15.40;;